FLRK1: Cottonwood Riv, Florence, KS

Data processed at Fri Jun 05 2020 23:15


All information presented herein is the property of the government of the United States of America and may be revised or deleted at any time without prior notice.
Dissemination of this information without the expressed written consent of the Public Affairs Office, Tulsa District U.S. Army Corps of Engineers is strictly prohibited.
These data are gathered electronically and, as presented, have not undergone any form of quality control. These data are not guaranteed to be valid or correct.
Go to home page.
Go to station list.
Go to home page.

Upstream stations:

Downstream station:
Previous Day
Next Day
Current Day
    
SHEF ID:       FLRK1     COTTONWOOD R NR FLORENCE, KS
STATION TYPE:  
Regulating: Stage =    21.00, Flow =     9471

               PRECIP     STAGE  STAGE(2)  RIV-FLOW  BAT-LOAD
                   in        ft        ft       cfs      volt
              Ccp-Rev   Ccp-Rev   Ccp-Rev   Ccp-Rev   Ccp-Rev
(US/Central)
06/05 00:00      0.00      3.39      2.91       250     13.07
06/05 01:00      0.00      3.36      2.91       239     13.07
06/05 02:00      0.00      3.39      2.91       250     13.00
06/05 03:00      0.00      3.39      2.91       250     13.00
06/05 04:00      0.00      3.39      2.90       250     13.00
06/05 05:00      0.00      3.38      2.91       247     12.95
06/05 06:00      0.00      3.38      2.90       247     12.95
06/05 07:00      0.00      3.38      2.90       247     12.95
06/05 08:00      0.00      3.38      2.91       247     13.00
06/05 09:00      0.00      3.36      2.91       239     13.00
06/05 10:00      0.00      3.37      2.91       243     13.07
06/05 11:00      0.00      3.34      2.91       232     13.12
06/05 12:00      0.00      3.37      2.91       243     13.59
06/05 13:00      0.00      3.34      2.91       232     13.71
06/05 14:00      0.00      3.37      2.91       243     13.48
06/05 15:00      0.00      3.36      2.91       239     13.48
06/05 16:00      0.00      3.35      2.91       236     13.53
06/05 17:00      0.00      3.35      2.91       236     13.88
06/05 18:00      0.00      3.34      2.91       232     13.53
06/05 19:00      0.00      3.34      2.91       232     13.48
06/05 20:00      0.00      3.35      2.91       236     13.48
06/05 21:00      0.00      3.36      2.91       239     13.18
06/05 22:00      0.00      3.36      2.91       239     13.12
06/05 23:00      ----      ----      ----      ----      ----